sensor_id;sensor_type;location;lat;lon;timestamp;temperature;humidity
210;DHT22;90;48.810;9.120;2022-08-01T00:46:20;23.80;52.30
210;DHT22;90;48.810;9.120;2022-08-01T00:51:14;23.80;52.50
210;DHT22;90;48.810;9.120;2022-08-01T00:53:44;23.80;52.70
210;DHT22;90;48.810;9.120;2022-08-01T01:01:06;23.70;53.50
210;DHT22;90;48.810;9.120;2022-08-01T01:13:43;23.50;54.70
210;DHT22;90;48.810;9.120;2022-08-01T01:16:13;23.50;54.70
210;DHT22;90;48.810;9.120;2022-08-01T01:18:45;23.50;54.70
210;DHT22;90;48.810;9.120;2022-08-01T01:24:31;23.40;55.50
210;DHT22;90;48.810;9.120;2022-08-01T01:27:09;23.40;55.40
210;DHT22;90;48.810;9.120;2022-08-01T01:29:42;23.40;55.60
210;DHT22;90;48.810;9.120;2022-08-01T01:32:18;23.40;55.80
210;DHT22;90;48.810;9.120;2022-08-01T01:34:49;23.40;56.00
210;DHT22;90;48.810;9.120;2022-08-01T01:37:19;23.30;56.10
210;DHT22;90;48.810;9.120;2022-08-01T01:39:48;23.30;56.10
210;DHT22;90;48.810;9.120;2022-08-01T01:44:46;23.30;56.50
210;DHT22;90;48.810;9.120;2022-08-01T01:47:16;23.20;56.80
210;DHT22;90;48.810;9.120;2022-08-01T01:49:45;23.20;57.10
210;DHT22;90;48.810;9.120;2022-08-01T01:52:14;23.20;57.20
210;DHT22;90;48.810;9.120;2022-08-01T01:57:15;23.30;57.20
210;DHT22;90;48.810;9.120;2022-08-01T01:59:46;23.30;57.30
210;DHT22;90;48.810;9.120;2022-08-01T02:02:14;23.20;57.30
210;DHT22;90;48.810;9.120;2022-08-01T02:04:44;23.20;57.60
210;DHT22;90;48.810;9.120;2022-08-01T02:07:20;23.20;57.60
210;DHT22;90;48.810;9.120;2022-08-01T02:09:49;23.20;57.70
210;DHT22;90;48.810;9.120;2022-08-01T02:12:19;23.20;57.70
210;DHT22;90;48.810;9.120;2022-08-01T02:17:19;23.10;58.20
210;DHT22;90;48.810;9.120;2022-08-01T02:19:47;23.00;58.30
210;DHT22;90;48.810;9.120;2022-08-01T02:22:19;23.00;58.40
210;DHT22;90;48.810;9.120;2022-08-01T02:24:51;22.90;58.50
210;DHT22;90;48.810;9.120;2022-08-01T02:27:23;22.80;58.80
210;DHT22;90;48.810;9.120;2022-08-01T02:29:56;22.90;58.70
210;DHT22;90;48.810;9.120;2022-08-01T02:32:30;22.80;59.00
210;DHT22;90;48.810;9.120;2022-08-01T02:34:58;22.80;59.20
210;DHT22;90;48.810;9.120;2022-08-01T02:37:29;22.80;59.40
210;DHT22;90;48.810;9.120;2022-08-01T02:39:58;22.60;60.00
210;DHT22;90;48.810;9.120;2022-08-01T02:42:28;22.60;60.10
210;DHT22;90;48.810;9.120;2022-08-01T02:44:57;22.50;60.80
210;DHT22;90;48.810;9.120;2022-08-01T02:47:27;22.60;60.60
210;DHT22;90;48.810;9.120;2022-08-01T02:49:55;22.50;60.80
210;DHT22;90;48.810;9.120;2022-08-01T02:52:25;22.60;60.70
210;DHT22;90;48.810;9.120;2022-08-01T02:54:55;22.60;60.70
210;DHT22;90;48.810;9.120;2022-08-01T02:57:23;22.60;60.70
210;DHT22;90;48.810;9.120;2022-08-01T02:59:52;22.70;60.30
210;DHT22;90;48.810;9.120;2022-08-01T03:02:22;22.50;60.90
210;DHT22;90;48.810;9.120;2022-08-01T03:04:52;22.50;61.20
210;DHT22;90;48.810;9.120;2022-08-01T03:07:21;22.40;61.50
210;DHT22;90;48.810;9.120;2022-08-01T03:09:49;22.40;61.60
210;DHT22;90;48.810;9.120;2022-08-01T03:12:20;22.40;61.80
210;DHT22;90;48.810;9.120;2022-08-01T03:14:51;22.40;61.70
210;DHT22;90;48.810;9.120;2022-08-01T03:17:24;22.50;61.70
210;DHT22;90;48.810;9.120;2022-08-01T03:19:52;22.50;61.80
210;DHT22;90;48.810;9.120;2022-08-01T03:22:22;22.40;62.20
210;DHT22;90;48.810;9.120;2022-08-01T03:24:52;22.40;62.40
210;DHT22;90;48.810;9.120;2022-08-01T03:27:21;22.30;62.60
210;DHT22;90;48.810;9.120;2022-08-01T03:29:51;22.30;62.60
210;DHT22;90;48.810;9.120;2022-08-01T03:32:19;22.30;62.60
210;DHT22;90;48.810;9.120;2022-08-01T03:37:24;22.30;62.90
210;DHT22;90;48.810;9.120;2022-08-01T03:39:57;22.30;62.90
210;DHT22;90;48.810;9.120;2022-08-01T03:42:37;22.40;62.90
210;DHT22;90;48.810;9.120;2022-08-01T03:45:08;22.40;63.00
210;DHT22;90;48.810;9.120;2022-08-01T03:47:42;22.30;63.30
210;DHT22;90;48.810;9.120;2022-08-01T03:50:13;22.20;63.60
210;DHT22;90;48.810;9.120;2022-08-01T03:52:42;22.30;63.60
210;DHT22;90;48.810;9.120;2022-08-01T03:55:11;22.30;63.70
210;DHT22;90;48.810;9.120;2022-08-01T03:57:40;22.40;63.60
210;DHT22;90;48.810;9.120;2022-08-01T04:00:08;22.30;63.80
210;DHT22;90;48.810;9.120;2022-08-01T04:02:37;22.40;63.70
210;DHT22;90;48.810;9.120;2022-08-01T04:05:05;22.30;64.00
210;DHT22;90;48.810;9.120;2022-08-01T04:07:34;22.30;64.10
210;DHT22;90;48.810;9.120;2022-08-01T04:10:02;22.30;64.10
210;DHT22;90;48.810;9.120;2022-08-01T04:12:30;22.30;64.20
210;DHT22;90;48.810;9.120;2022-08-01T04:14:58;22.30;64.10
210;DHT22;90;48.810;9.120;2022-08-01T04:17:25;22.30;64.20
210;DHT22;90;48.810;9.120;2022-08-01T04:19:52;22.30;64.20
210;DHT22;90;48.810;9.120;2022-08-01T04:22:19;22.30;64.20
210;DHT22;90;48.810;9.120;2022-08-01T04:24:50;22.40;64.20
210;DHT22;90;48.810;9.120;2022-08-01T04:27:23;22.40;64.30
210;DHT22;90;48.810;9.120;2022-08-01T04:29:51;22.40;64.30
210;DHT22;90;48.810;9.120;2022-08-01T04:32:21;22.40;64.50
210;DHT22;90;48.810;9.120;2022-08-01T04:34:49;22.40;64.70
210;DHT22;90;48.810;9.120;2022-08-01T04:37:18;22.30;64.80
210;DHT22;90;48.810;9.120;2022-08-01T04:39:47;22.40;64.90
210;DHT22;90;48.810;9.120;2022-08-01T04:42:17;22.40;65.00
210;DHT22;90;48.810;9.120;2022-08-01T04:44:44;22.50;64.80
210;DHT22;90;48.810;9.120;2022-08-01T04:47:12;22.50;64.90
210;DHT22;90;48.810;9.120;2022-08-01T04:49:40;22.50;64.80
210;DHT22;90;48.810;9.120;2022-08-01T04:52:08;22.60;64.90
210;DHT22;90;48.810;9.120;2022-08-01T04:54:36;22.60;64.90
210;DHT22;90;48.810;9.120;2022-08-01T04:57:05;22.70;64.70
210;DHT22;90;48.810;9.120;2022-08-01T04:59:35;22.80;64.80
210;DHT22;90;48.810;9.120;2022-08-01T05:02:07;22.80;64.80
210;DHT22;90;48.810;9.120;2022-08-01T05:04:34;22.80;64.90
210;DHT22;90;48.810;9.120;2022-08-01T05:07:02;22.90;64.90
210;DHT22;90;48.810;9.120;2022-08-01T05:09:30;22.90;64.90
210;DHT22;90;48.810;9.120;2022-08-01T05:11:57;22.90;64.70
210;DHT22;90;48.810;9.120;2022-08-01T05:14:27;22.90;64.90
210;DHT22;90;48.810;9.120;2022-08-01T05:16:57;22.80;65.20
210;DHT22;90;48.810;9.120;2022-08-01T05:19:26;22.80;65.30
210;DHT22;90;48.810;9.120;2022-08-01T05:21:53;22.90;64.80
210;DHT22;90;48.810;9.120;2022-08-01T05:24:24;23.00;64.40
210;DHT22;90;48.810;9.120;2022-08-01T05:26:52;23.00;64.10
210;DHT22;90;48.810;9.120;2022-08-01T05:31:48;23.10;64.00
210;DHT22;90;48.810;9.120;2022-08-01T05:34:17;23.20;64.00
210;DHT22;90;48.810;9.120;2022-08-01T05:36:45;23.20;64.10
210;DHT22;90;48.810;9.120;2022-08-01T05:39:17;23.20;64.60
210;DHT22;90;48.810;9.120;2022-08-01T05:41:44;23.10;64.70
210;DHT22;90;48.810;9.120;2022-08-01T05:44:11;23.10;65.10
210;DHT22;90;48.810;9.120;2022-08-01T05:46:39;23.10;64.90
210;DHT22;90;48.810;9.120;2022-08-01T05:49:07;23.20;64.80
210;DHT22;90;48.810;9.120;2022-08-01T05:51:35;23.20;64.60
210;DHT22;90;48.810;9.120;2022-08-01T05:54:02;23.20;64.40
210;DHT22;90;48.810;9.120;2022-08-01T05:56:29;23.30;64.60
210;DHT22;90;48.810;9.120;2022-08-01T05:58:56;23.30;64.60
210;DHT22;90;48.810;9.120;2022-08-01T06:01:23;23.40;64.40
210;DHT22;90;48.810;9.120;2022-08-01T06:03:50;23.60;63.90
210;DHT22;90;48.810;9.120;2022-08-01T06:06:19;23.50;64.00
210;DHT22;90;48.810;9.120;2022-08-01T06:08:47;23.50;64.20
210;DHT22;90;48.810;9.120;2022-08-01T06:11:18;23.50;64.20
210;DHT22;90;48.810;9.120;2022-08-01T06:13:45;23.60;63.90
210;DHT22;90;48.810;9.120;2022-08-01T06:16:12;23.70;63.60
210;DHT22;90;48.810;9.120;2022-08-01T06:18:39;23.80;63.60
210;DHT22;90;48.810;9.120;2022-08-01T06:21:09;23.80;63.80
210;DHT22;90;48.810;9.120;2022-08-01T06:23:38;23.90;63.70
210;DHT22;90;48.810;9.120;2022-08-01T06:26:07;23.90;63.70
210;DHT22;90;48.810;9.120;2022-08-01T06:28:34;23.90;63.60
210;DHT22;90;48.810;9.120;2022-08-01T06:31:01;23.90;63.70
210;DHT22;90;48.810;9.120;2022-08-01T06:33:28;23.90;63.50
210;DHT22;90;48.810;9.120;2022-08-01T06:35:55;23.90;63.60
210;DHT22;90;48.810;9.120;2022-08-01T06:38:22;23.90;63.40
210;DHT22;90;48.810;9.120;2022-08-01T06:40:51;23.80;63.10
210;DHT22;90;48.810;9.120;2022-08-01T06:43:19;23.80;63.90
210;DHT22;90;48.810;9.120;2022-08-01T06:45:48;23.70;64.30
210;DHT22;90;48.810;9.120;2022-08-01T06:48:16;23.80;64.00
210;DHT22;90;48.810;9.120;2022-08-01T06:50:46;24.00;63.80
210;DHT22;90;48.810;9.120;2022-08-01T06:53:15;24.00;63.40
210;DHT22;90;48.810;9.120;2022-08-01T06:58:11;24.10;63.30
210;DHT22;90;48.810;9.120;2022-08-01T07:00:38;24.20;63.30
210;DHT22;90;48.810;9.120;2022-08-01T07:03:07;24.20;62.90
210;DHT22;90;48.810;9.120;2022-08-01T07:05:35;24.30;62.60
210;DHT22;90;48.810;9.120;2022-08-01T07:08:03;24.30;62.80
210;DHT22;90;48.810;9.120;2022-08-01T07:10:30;24.40;62.40
210;DHT22;90;48.810;9.120;2022-08-01T07:12:57;24.40;62.20
210;DHT22;90;48.810;9.120;2022-08-01T07:15:26;24.50;62.00
210;DHT22;90;48.810;9.120;2022-08-01T07:17:53;24.40;62.20
210;DHT22;90;48.810;9.120;2022-08-01T07:20:21;24.40;62.40
210;DHT22;90;48.810;9.120;2022-08-01T07:22:49;24.40;62.30
210;DHT22;90;48.810;9.120;2022-08-01T07:25:17;24.30;62.40
210;DHT22;90;48.810;9.120;2022-08-01T07:30:12;24.40;62.30
210;DHT22;90;48.810;9.120;2022-08-01T07:32:41;24.50;62.30
210;DHT22;90;48.810;9.120;2022-08-01T07:35:08;24.40;62.30
210;DHT22;90;48.810;9.120;2022-08-01T07:37:38;24.80;61.70
210;DHT22;90;48.810;9.120;2022-08-01T07:40:06;24.80;61.70
210;DHT22;90;48.810;9.120;2022-08-01T07:42:36;24.80;60.80
210;DHT22;90;48.810;9.120;2022-08-01T07:45:04;24.80;60.90
210;DHT22;90;48.810;9.120;2022-08-01T07:47:31;24.90;60.70
210;DHT22;90;48.810;9.120;2022-08-01T07:50:02;25.10;60.30
210;DHT22;90;48.810;9.120;2022-08-01T07:52:29;25.20;59.70
210;DHT22;90;48.810;9.120;2022-08-01T07:54:57;25.10;59.70
210;DHT22;90;48.810;9.120;2022-08-01T07:57:26;25.20;59.80
210;DHT22;90;48.810;9.120;2022-08-01T07:59:56;25.20;59.90
210;DHT22;90;48.810;9.120;2022-08-01T08:02:23;25.10;59.90
210;DHT22;90;48.810;9.120;2022-08-01T08:07:19;25.10;60.60
210;DHT22;90;48.810;9.120;2022-08-01T08:14:41;25.20;60.20
210;DHT22;90;48.810;9.120;2022-08-01T08:17:08;25.20;60.40
210;DHT22;90;48.810;9.120;2022-08-01T08:19:35;25.20;60.10
210;DHT22;90;48.810;9.120;2022-08-01T08:22:04;25.20;60.10
210;DHT22;90;48.810;9.120;2022-08-01T08:24:33;25.20;59.90
210;DHT22;90;48.810;9.120;2022-08-01T08:27:01;25.20;60.50
210;DHT22;90;48.810;9.120;2022-08-01T08:29:29;25.30;60.60
210;DHT22;90;48.810;9.120;2022-08-01T08:31:59;25.30;59.70
210;DHT22;90;48.810;9.120;2022-08-01T08:34:27;25.30;59.70
210;DHT22;90;48.810;9.120;2022-08-01T08:36:55;25.40;59.00
210;DHT22;90;48.810;9.120;2022-08-01T08:39:25;25.30;59.40
210;DHT22;90;48.810;9.120;2022-08-01T08:41:54;25.20;59.30
210;DHT22;90;48.810;9.120;2022-08-01T08:44:21;25.20;59.70
210;DHT22;90;48.810;9.120;2022-08-01T08:46:50;25.20;59.70
210;DHT22;90;48.810;9.120;2022-08-01T08:49:22;25.30;60.00
210;DHT22;90;48.810;9.120;2022-08-01T08:51:51;25.40;59.30
210;DHT22;90;48.810;9.120;2022-08-01T08:54:21;25.40;59.00
210;DHT22;90;48.810;9.120;2022-08-01T08:56:51;25.40;59.10
210;DHT22;90;48.810;9.120;2022-08-01T08:59:20;25.40;58.90
210;DHT22;90;48.810;9.120;2022-08-01T09:01:49;25.30;59.60
210;DHT22;90;48.810;9.120;2022-08-01T09:04:17;25.40;59.60
210;DHT22;90;48.810;9.120;2022-08-01T09:09:11;25.60;58.40
210;DHT22;90;48.810;9.120;2022-08-01T09:11:39;25.50;58.40
210;DHT22;90;48.810;9.120;2022-08-01T09:14:09;25.60;58.60
210;DHT22;90;48.810;9.120;2022-08-01T09:16:40;25.60;58.40
210;DHT22;90;48.810;9.120;2022-08-01T09:19:10;25.60;58.40
210;DHT22;90;48.810;9.120;2022-08-01T09:21:38;25.50;58.80
210;DHT22;90;48.810;9.120;2022-08-01T09:24:14;25.50;59.10
210;DHT22;90;48.810;9.120;2022-08-01T09:26:42;25.50;59.20
210;DHT22;90;48.810;9.120;2022-08-01T09:29:18;25.50;59.20
210;DHT22;90;48.810;9.120;2022-08-01T09:31:47;25.60;59.10
210;DHT22;90;48.810;9.120;2022-08-01T09:34:16;25.80;58.20
210;DHT22;90;48.810;9.120;2022-08-01T09:36:53;25.90;57.90
210;DHT22;90;48.810;9.120;2022-08-01T09:39:22;26.10;57.40
210;DHT22;90;48.810;9.120;2022-08-01T09:41:50;26.10;57.40
210;DHT22;90;48.810;9.120;2022-08-01T09:44:18;26.00;58.10
210;DHT22;90;48.810;9.120;2022-08-01T09:46:53;26.00;58.10
210;DHT22;90;48.810;9.120;2022-08-01T09:49:38;26.00;58.10
210;DHT22;90;48.810;9.120;2022-08-01T09:52:13;25.80;58.40
210;DHT22;90;48.810;9.120;2022-08-01T09:54:41;25.80;58.40
210;DHT22;90;48.810;9.120;2022-08-01T09:57:11;25.80;57.90
210;DHT22;90;48.810;9.120;2022-08-01T09:59:39;25.80;57.60
210;DHT22;90;48.810;9.120;2022-08-01T10:02:10;25.80;57.50
210;DHT22;90;48.810;9.120;2022-08-01T10:04:46;25.80;57.60
210;DHT22;90;48.810;9.120;2022-08-01T10:07:14;25.80;57.60
210;DHT22;90;48.810;9.120;2022-08-01T10:09:42;26.10;57.00
210;DHT22;90;48.810;9.120;2022-08-01T10:12:13;26.10;57.00
210;DHT22;90;48.810;9.120;2022-08-01T10:14:44;26.40;55.70
210;DHT22;90;48.810;9.120;2022-08-01T10:17:15;26.60;55.80
210;DHT22;90;48.810;9.120;2022-08-01T10:19:43;26.70;55.50
210;DHT22;90;48.810;9.120;2022-08-01T10:22:11;26.70;55.00
210;DHT22;90;48.810;9.120;2022-08-01T10:24:52;26.60;55.00
210;DHT22;90;48.810;9.120;2022-08-01T10:27:24;26.50;55.20
210;DHT22;90;48.810;9.120;2022-08-01T10:29:56;26.40;55.50
210;DHT22;90;48.810;9.120;2022-08-01T10:32:27;26.40;55.70
210;DHT22;90;48.810;9.120;2022-08-01T10:34:55;26.30;55.40
210;DHT22;90;48.810;9.120;2022-08-01T10:37:24;26.50;55.50
210;DHT22;90;48.810;9.120;2022-08-01T10:39:51;26.80;55.20
210;DHT22;90;48.810;9.120;2022-08-01T10:42:19;26.90;54.80
210;DHT22;90;48.810;9.120;2022-08-01T10:44:48;26.90;54.10
210;DHT22;90;48.810;9.120;2022-08-01T10:47:23;26.90;54.10
210;DHT22;90;48.810;9.120;2022-08-01T10:50:01;27.00;53.20
210;DHT22;90;48.810;9.120;2022-08-01T10:52:29;27.10;52.60
210;DHT22;90;48.810;9.120;2022-08-01T10:55:02;27.10;53.00
210;DHT22;90;48.810;9.120;2022-08-01T10:57:42;27.20;53.10
210;DHT22;90;48.810;9.120;2022-08-01T11:00:17;27.20;52.90
210;DHT22;90;48.810;9.120;2022-08-01T11:02:57;27.30;53.20
210;DHT22;90;48.810;9.120;2022-08-01T11:05:30;27.40;52.40
210;DHT22;90;48.810;9.120;2022-08-01T11:08:01;27.50;52.70
210;DHT22;90;48.810;9.120;2022-08-01T11:10:34;27.70;51.90
210;DHT22;90;48.810;9.120;2022-08-01T11:13:03;27.70;51.40
210;DHT22;90;48.810;9.120;2022-08-01T11:15:36;27.70;51.50
210;DHT22;90;48.810;9.120;2022-08-01T11:18:30;27.80;51.40
210;DHT22;90;48.810;9.120;2022-08-01T11:21:01;27.80;50.80
210;DHT22;90;48.810;9.120;2022-08-01T11:23:29;27.70;51.40
210;DHT22;90;48.810;9.120;2022-08-01T11:26:12;27.80;50.90
210;DHT22;90;48.810;9.120;2022-08-01T11:28:40;27.80;50.80
210;DHT22;90;48.810;9.120;2022-08-01T11:31:30;27.70;51.60
210;DHT22;90;48.810;9.120;2022-08-01T11:33:59;27.70;51.70
210;DHT22;90;48.810;9.120;2022-08-01T11:36:27;27.70;51.30
210;DHT22;90;48.810;9.120;2022-08-01T11:39:17;27.60;51.30
210;DHT22;90;48.810;9.120;2022-08-01T11:41:46;27.80;51.10
210;DHT22;90;48.810;9.120;2022-08-01T11:44:19;27.90;51.00
210;DHT22;90;48.810;9.120;2022-08-01T11:47:00;28.10;50.70
210;DHT22;90;48.810;9.120;2022-08-01T11:52:29;28.20;50.60
210;DHT22;90;48.810;9.120;2022-08-01T11:55:05;28.30;50.20
210;DHT22;90;48.810;9.120;2022-08-01T11:57:33;28.20;49.30
210;DHT22;90;48.810;9.120;2022-08-01T12:00:04;28.10;49.10
210;DHT22;90;48.810;9.120;2022-08-01T12:02:34;27.90;49.70
210;DHT22;90;48.810;9.120;2022-08-01T12:05:04;27.70;49.90
210;DHT22;90;48.810;9.120;2022-08-01T12:07:34;27.50;50.00
210;DHT22;90;48.810;9.120;2022-08-01T12:10:03;27.60;50.30
210;DHT22;90;48.810;9.120;2022-08-01T12:12:31;27.90;49.10
210;DHT22;90;48.810;9.120;2022-08-01T12:15:00;28.10;49.10
210;DHT22;90;48.810;9.120;2022-08-01T12:17:39;28.40;49.10
210;DHT22;90;48.810;9.120;2022-08-01T12:20:09;28.60;49.20
210;DHT22;90;48.810;9.120;2022-08-01T12:22:38;28.50;49.40
210;DHT22;90;48.810;9.120;2022-08-01T12:25:08;28.50;49.30
210;DHT22;90;48.810;9.120;2022-08-01T12:27:36;28.70;48.70
210;DHT22;90;48.810;9.120;2022-08-01T12:30:05;28.60;49.30
210;DHT22;90;48.810;9.120;2022-08-01T12:32:35;28.70;49.10
210;DHT22;90;48.810;9.120;2022-08-01T12:35:04;28.90;49.00
210;DHT22;90;48.810;9.120;2022-08-01T12:37:34;29.10;48.90
210;DHT22;90;48.810;9.120;2022-08-01T12:40:09;29.30;47.80
210;DHT22;90;48.810;9.120;2022-08-01T12:42:37;29.30;47.30
210;DHT22;90;48.810;9.120;2022-08-01T12:45:08;29.40;47.10
210;DHT22;90;48.810;9.120;2022-08-01T12:47:36;29.20;46.70
210;DHT22;90;48.810;9.120;2022-08-01T12:50:06;29.10;47.90
210;DHT22;90;48.810;9.120;2022-08-01T12:52:33;29.10;47.50
210;DHT22;90;48.810;9.120;2022-08-01T12:55:12;29.10;47.50
210;DHT22;90;48.810;9.120;2022-08-01T12:57:41;28.50;48.10
210;DHT22;90;48.810;9.120;2022-08-01T13:00:21;28.40;49.40
210;DHT22;90;48.810;9.120;2022-08-01T13:03:00;28.40;49.90
210;DHT22;90;48.810;9.120;2022-08-01T13:07:55;28.10;51.00
210;DHT22;90;48.810;9.120;2022-08-01T13:10:29;28.20;50.10
210;DHT22;90;48.810;9.120;2022-08-01T13:12:58;28.60;49.70
210;DHT22;90;48.810;9.120;2022-08-01T13:15:28;28.90;48.40
210;DHT22;90;48.810;9.120;2022-08-01T13:17:57;29.20;47.80
210;DHT22;90;48.810;9.120;2022-08-01T13:20:32;29.40;47.90
210;DHT22;90;48.810;9.120;2022-08-01T13:23:14;29.40;47.70
210;DHT22;90;48.810;9.120;2022-08-01T13:25:57;29.20;47.60
210;DHT22;90;48.810;9.120;2022-08-01T13:28:25;29.20;47.60
210;DHT22;90;48.810;9.120;2022-08-01T13:30:55;29.10;47.80
210;DHT22;90;48.810;9.120;2022-08-01T13:33:22;29.00;47.50
210;DHT22;90;48.810;9.120;2022-08-01T13:35:50;28.70;48.00
210;DHT22;90;48.810;9.120;2022-08-01T13:38:18;28.50;48.20
210;DHT22;90;48.810;9.120;2022-08-01T13:40:45;28.40;48.70
210;DHT22;90;48.810;9.120;2022-08-01T13:43:12;28.30;49.20
210;DHT22;90;48.810;9.120;2022-08-01T13:45:40;28.30;49.30
210;DHT22;90;48.810;9.120;2022-08-01T13:48:07;28.30;49.60
210;DHT22;90;48.810;9.120;2022-08-01T13:50:35;28.40;49.30
210;DHT22;90;48.810;9.120;2022-08-01T13:53:02;28.70;49.20
210;DHT22;90;48.810;9.120;2022-08-01T13:55:29;29.10;49.10
210;DHT22;90;48.810;9.120;2022-08-01T14:00:28;29.60;46.70
210;DHT22;90;48.810;9.120;2022-08-01T14:05:23;29.70;46.00
210;DHT22;90;48.810;9.120;2022-08-01T14:07:50;29.60;46.10
210;DHT22;90;48.810;9.120;2022-08-01T14:10:17;29.50;46.30
210;DHT22;90;48.810;9.120;2022-08-01T14:12:45;29.50;46.00
210;DHT22;90;48.810;9.120;2022-08-01T14:15:14;29.30;46.90
210;DHT22;90;48.810;9.120;2022-08-01T14:17:42;29.60;46.40
210;DHT22;90;48.810;9.120;2022-08-01T14:20:10;29.80;46.00
210;DHT22;90;48.810;9.120;2022-08-01T14:22:38;29.60;46.40
210;DHT22;90;48.810;9.120;2022-08-01T14:25:06;29.50;46.70
210;DHT22;90;48.810;9.120;2022-08-01T14:27:34;29.70;46.50
210;DHT22;90;48.810;9.120;2022-08-01T14:30:02;29.60;46.90
210;DHT22;90;48.810;9.120;2022-08-01T14:32:29;29.90;46.20
210;DHT22;90;48.810;9.120;2022-08-01T14:35:00;30.20;45.60
210;DHT22;90;48.810;9.120;2022-08-01T14:37:30;30.40;45.10
210;DHT22;90;48.810;9.120;2022-08-01T14:39:58;30.40;45.10
210;DHT22;90;48.810;9.120;2022-08-01T14:42:26;30.40;45.20
210;DHT22;90;48.810;9.120;2022-08-01T14:44:53;30.30;45.20
210;DHT22;90;48.810;9.120;2022-08-01T14:49:47;30.80;44.40
210;DHT22;90;48.810;9.120;2022-08-01T14:52:16;30.80;44.40
210;DHT22;90;48.810;9.120;2022-08-01T14:54:43;30.80;43.50
210;DHT22;90;48.810;9.120;2022-08-01T14:57:10;30.70;43.50
210;DHT22;90;48.810;9.120;2022-08-01T14:59:37;30.50;43.40
210;DHT22;90;48.810;9.120;2022-08-01T15:02:04;30.30;44.00
210;DHT22;90;48.810;9.120;2022-08-01T15:06:59;29.80;45.10
210;DHT22;90;48.810;9.120;2022-08-01T15:09:27;29.70;45.40
210;DHT22;90;48.810;9.120;2022-08-01T15:19:34;29.60;46.20
210;DHT22;90;48.810;9.120;2022-08-01T15:22:01;29.80;44.70
210;DHT22;90;48.810;9.120;2022-08-01T15:24:30;29.90;44.90
210;DHT22;90;48.810;9.120;2022-08-01T15:26:57;29.70;45.00
210;DHT22;90;48.810;9.120;2022-08-01T15:31:52;29.30;44.90
210;DHT22;90;48.810;9.120;2022-08-01T15:34:19;29.40;45.00
210;DHT22;90;48.810;9.120;2022-08-01T15:36:46;29.30;44.80
210;DHT22;90;48.810;9.120;2022-08-01T15:39:13;29.20;44.90
210;DHT22;90;48.810;9.120;2022-08-01T15:41:43;29.20;45.50
210;DHT22;90;48.810;9.120;2022-08-01T15:44:13;29.20;45.40
210;DHT22;90;48.810;9.120;2022-08-01T15:49:07;28.90;46.00
210;DHT22;90;48.810;9.120;2022-08-01T15:51:37;28.80;45.60
210;DHT22;90;48.810;9.120;2022-08-01T15:54:04;28.70;45.70
210;DHT22;90;48.810;9.120;2022-08-01T15:56:32;28.60;46.20
210;DHT22;90;48.810;9.120;2022-08-01T15:59:01;28.50;46.70
210;DHT22;90;48.810;9.120;2022-08-01T16:01:31;28.40;47.20
210;DHT22;90;48.810;9.120;2022-08-01T16:03:59;28.30;47.50
210;DHT22;90;48.810;9.120;2022-08-01T16:06:26;28.30;47.40
210;DHT22;90;48.810;9.120;2022-08-01T16:08:53;28.20;47.70
210;DHT22;90;48.810;9.120;2022-08-01T16:11:21;28.10;47.80
210;DHT22;90;48.810;9.120;2022-08-01T16:13:51;28.10;48.00
210;DHT22;90;48.810;9.120;2022-08-01T16:16:20;28.20;47.60
210;DHT22;90;48.810;9.120;2022-08-01T16:18:48;28.30;47.20
210;DHT22;90;48.810;9.120;2022-08-01T16:21:15;28.30;47.30
210;DHT22;90;48.810;9.120;2022-08-01T16:23:43;28.40;47.30
210;DHT22;90;48.810;9.120;2022-08-01T16:26:11;28.50;47.30
210;DHT22;90;48.810;9.120;2022-08-01T16:28:40;28.50;47.10
210;DHT22;90;48.810;9.120;2022-08-01T16:31:07;28.40;47.40
210;DHT22;90;48.810;9.120;2022-08-01T16:33:35;28.40;47.60
210;DHT22;90;48.810;9.120;2022-08-01T16:36:03;28.40;47.60
210;DHT22;90;48.810;9.120;2022-08-01T16:38:30;28.20;47.40
210;DHT22;90;48.810;9.120;2022-08-01T16:43:24;28.10;47.60
210;DHT22;90;48.810;9.120;2022-08-01T16:45:53;28.10;47.90
210;DHT22;90;48.810;9.120;2022-08-01T16:48:20;28.00;48.00
210;DHT22;90;48.810;9.120;2022-08-01T16:50:49;28.00;48.10
210;DHT22;90;48.810;9.120;2022-08-01T16:53:18;28.00;48.30
210;DHT22;90;48.810;9.120;2022-08-01T16:55:45;28.10;48.20
210;DHT22;90;48.810;9.120;2022-08-01T16:58:13;28.10;48.20
210;DHT22;90;48.810;9.120;2022-08-01T17:00:40;27.80;48.80
210;DHT22;90;48.810;9.120;2022-08-01T17:03:09;27.80;49.00
210;DHT22;90;48.810;9.120;2022-08-01T17:05:40;27.80;49.00
210;DHT22;90;48.810;9.120;2022-08-01T17:08:09;27.80;48.90
210;DHT22;90;48.810;9.120;2022-08-01T17:10:37;27.80;49.10
210;DHT22;90;48.810;9.120;2022-08-01T17:13:05;27.90;49.20
210;DHT22;90;48.810;9.120;2022-08-01T17:15:32;28.20;48.50
210;DHT22;90;48.810;9.120;2022-08-01T17:18:01;28.20;48.30
210;DHT22;90;48.810;9.120;2022-08-01T17:20:28;28.20;48.50
210;DHT22;90;48.810;9.120;2022-08-01T17:22:55;28.10;48.80
210;DHT22;90;48.810;9.120;2022-08-01T17:25:24;28.00;48.80
210;DHT22;90;48.810;9.120;2022-08-01T17:27:51;27.90;48.90
210;DHT22;90;48.810;9.120;2022-08-01T17:30:19;27.80;49.20
210;DHT22;90;48.810;9.120;2022-08-01T17:32:46;27.70;49.30
210;DHT22;90;48.810;9.120;2022-08-01T17:35:14;27.60;49.70
210;DHT22;90;48.810;9.120;2022-08-01T17:37:41;27.60;49.80
210;DHT22;90;48.810;9.120;2022-08-01T17:40:09;27.50;50.00
210;DHT22;90;48.810;9.120;2022-08-01T17:42:40;27.50;50.10
210;DHT22;90;48.810;9.120;2022-08-01T17:45:10;27.40;50.20
210;DHT22;90;48.810;9.120;2022-08-01T17:47:39;27.20;50.70
210;DHT22;90;48.810;9.120;2022-08-01T17:50:08;27.20;51.00
210;DHT22;90;48.810;9.120;2022-08-01T17:52:36;27.10;51.40
210;DHT22;90;48.810;9.120;2022-08-01T17:55:04;27.10;51.50
210;DHT22;90;48.810;9.120;2022-08-01T17:57:34;27.00;51.50
210;DHT22;90;48.810;9.120;2022-08-01T18:00:04;26.80;52.20
210;DHT22;90;48.810;9.120;2022-08-01T18:02:32;26.80;52.20
210;DHT22;90;48.810;9.120;2022-08-01T18:04:59;26.80;52.40
210;DHT22;90;48.810;9.120;2022-08-01T18:07:31;26.80;52.40
210;DHT22;90;48.810;9.120;2022-08-01T18:09:58;26.80;52.50
210;DHT22;90;48.810;9.120;2022-08-01T18:12:25;26.80;52.50
210;DHT22;90;48.810;9.120;2022-08-01T18:14:52;26.70;52.60
210;DHT22;90;48.810;9.120;2022-08-01T18:17:23;26.70;52.70
210;DHT22;90;48.810;9.120;2022-08-01T18:19:50;26.70;52.80
210;DHT22;90;48.810;9.120;2022-08-01T18:29:39;26.60;53.40
210;DHT22;90;48.810;9.120;2022-08-01T18:32:06;26.50;53.40
210;DHT22;90;48.810;9.120;2022-08-01T18:34:36;26.50;53.70
210;DHT22;90;48.810;9.120;2022-08-01T18:37:04;26.40;54.00
210;DHT22;90;48.810;9.120;2022-08-01T18:39:36;26.30;54.10
210;DHT22;90;48.810;9.120;2022-08-01T18:44:30;26.30;54.10
210;DHT22;90;48.810;9.120;2022-08-01T18:46:57;26.30;54.20
210;DHT22;90;48.810;9.120;2022-08-01T18:49:25;26.30;54.20
210;DHT22;90;48.810;9.120;2022-08-01T18:51:54;26.30;54.30
210;DHT22;90;48.810;9.120;2022-08-01T18:54:22;26.30;54.10
210;DHT22;90;48.810;9.120;2022-08-01T18:56:58;26.30;54.20
210;DHT22;90;48.810;9.120;2022-08-01T18:59:25;26.30;54.20
210;DHT22;90;48.810;9.120;2022-08-01T19:01:53;26.20;54.10
210;DHT22;90;48.810;9.120;2022-08-01T19:04:21;26.10;54.20
210;DHT22;90;48.810;9.120;2022-08-01T19:06:48;26.10;54.20
210;DHT22;90;48.810;9.120;2022-08-01T19:09:17;26.10;54.20
210;DHT22;90;48.810;9.120;2022-08-01T19:11:44;26.10;54.40
210;DHT22;90;48.810;9.120;2022-08-01T19:14:11;26.10;54.60
210;DHT22;90;48.810;9.120;2022-08-01T19:16:41;26.00;54.80
210;DHT22;90;48.810;9.120;2022-08-01T19:19:10;26.00;54.70